Time;durP1;ratioP1;P1;durP2;ratioP2;P2;SDS_P1;SDS_P2;PMS_P1;PMS_P2;Temp;Humidity;BMP_temperature;BMP_pressure;BME280_temperature;BME280_humidity;BME280_pressure;Samples;Min_cycle;Max_cycle;Signal;HPM_P1;HPM_P2
2021/03/10 00:00:40;;;;;;;31.85;20.48;;;4.60;99.90;;;;;;5012808;28;20030;-68
2021/03/10 00:03:06;;;;;;;32.83;20.70;;;4.60;99.90;;;;;;5012761;28;20025;-68
2021/03/10 00:05:31;;;;;;;31.55;20.60;;;4.60;99.90;;;;;;5015211;28;20033;-68
2021/03/10 00:07:57;;;;;;;34.42;20.85;;;4.50;99.90;;;;;;5014620;28;20052;-68
2021/03/10 00:10:23;;;;;;;32.40;21.25;;;4.50;99.90;;;;;;5015674;28;20038;-68
2021/03/10 00:12:48;;;;;;;32.42;20.63;;;4.40;99.90;;;;;;5013678;28;20030;-69
2021/03/10 00:15:14;;;;;;;32.42;21.25;;;4.50;99.90;;;;;;5014958;28;20365;-69
2021/03/10 00:17:42;;;;;;;32.20;21.15;;;4.40;99.90;;;;;;5016239;28;20025;-69
2021/03/10 00:20:09;;;;;;;30.13;19.88;;;4.40;99.90;;;;;;5015788;28;20037;-68
2021/03/10 00:22:35;;;;;;;34.35;21.13;;;4.40;99.90;;;;;;5015573;28;20421;-68
2021/03/10 00:25:02;;;;;;;36.13;21.52;;;4.40;99.90;;;;;;5013589;28;20554;-68
2021/03/10 00:27:27;;;;;;;35.28;21.83;;;4.40;99.90;;;;;;5015133;28;20054;-68
2021/03/10 00:29:55;;;;;;;32.00;21.55;;;4.40;99.90;;;;;;5013459;28;20061;-68
2021/03/10 00:32:23;;;;;;;35.47;21.88;;;4.50;99.90;;;;;;5014129;28;20036;-69
2021/03/10 00:34:49;;;;;;;33.25;21.05;;;4.40;99.90;;;;;;5013389;28;20024;-67
2021/03/10 00:37:16;;;;;;;33.30;20.75;;;4.50;99.90;;;;;;5014410;28;20157;-68
2021/03/10 00:39:43;;;;;;;34.10;22.05;;;4.40;99.90;;;;;;5014250;28;20101;-68
2021/03/10 00:42:08;;;;;;;33.08;20.50;;;4.40;99.90;;;;;;5014021;28;20104;-69
2021/03/10 00:44:34;;;;;;;32.42;21.20;;;4.50;99.90;;;;;;5012885;28;20060;-68
2021/03/10 00:47:00;;;;;;;34.60;21.88;;;4.60;99.90;;;;;;5013784;28;20374;-70
2021/03/10 00:49:25;;;;;;;32.28;21.40;;;4.50;99.90;;;;;;5013648;28;20079;-68
2021/03/10 00:51:51;;;;;;;32.13;20.67;;;4.50;99.90;;;;;;5013426;28;20026;-69
2021/03/10 00:54:16;;;;;;;33.22;20.38;;;4.50;99.90;;;;;;5012834;28;20029;-69
2021/03/10 00:56:42;;;;;;;36.17;21.98;;;4.40;99.90;;;;;;5013296;28;20109;-69
2021/03/10 00:59:08;;;;;;;30.48;21.70;;;4.50;99.90;;;;;;5012268;28;20022;-69
2021/03/10 01:01:33;;;;;;;38.92;22.13;;;4.60;99.90;;;;;;5013068;28;20456;-69
2021/03/10 01:03:59;;;;;;;34.28;23.10;;;4.50;99.90;;;;;;5012749;28;20060;-69
2021/03/10 01:06:25;;;;;;;37.70;22.92;;;4.30;99.90;;;;;;5012171;28;20040;-68
2021/03/10 01:08:51;;;;;;;35.90;22.20;;;4.50;99.90;;;;;;5013380;28;20120;-69
2021/03/10 01:11:17;;;;;;;30.42;20.77;;;4.50;99.90;;;;;;5012965;28;20484;-69
2021/03/10 01:13:44;;;;;;;33.67;21.40;;;4.60;99.90;;;;;;5011994;28;20079;-69
2021/03/10 01:16:10;;;;;;;34.40;22.02;;;4.60;99.90;;;;;;5012985;28;20456;-69
2021/03/10 01:18:35;;;;;;;35.25;22.85;;;4.60;99.90;;;;;;5010947;28;20037;-69
2021/03/10 01:21:01;;;;;;;32.13;22.02;;;4.60;99.90;;;;;;5011215;28;20029;-69
2021/03/10 01:23:27;;;;;;;36.08;23.58;;;4.60;99.90;;;;;;5010986;28;20033;-70
2021/03/10 01:25:52;;;;;;;36.42;23.05;;;4.60;99.90;;;;;;5012612;28;20590;-70
2021/03/10 01:28:18;;;;;;;35.42;23.10;;;4.60;99.90;;;;;;5011171;28;20026;-69
2021/03/10 01:30:44;;;;;;;35.35;22.77;;;4.60;99.90;;;;;;5013038;28;20026;-69
2021/03/10 01:33:10;;;;;;;36.20;22.35;;;4.50;99.90;;;;;;5012342;28;20033;-69
2021/03/10 01:35:36;;;;;;;36.15;23.08;;;4.40;99.90;;;;;;5012807;28;20026;-69
2021/03/10 01:38:01;;;;;;;31.27;21.23;;;4.30;99.90;;;;;;5012826;28;20108;-69
2021/03/10 01:40:27;;;;;;;39.95;24.20;;;4.30;99.90;;;;;;5011641;28;20052;-69
2021/03/10 01:42:53;;;;;;;35.53;22.95;;;4.20;99.90;;;;;;5011957;28;20026;-69
2021/03/10 01:45:18;;;;;;;36.80;23.77;;;4.20;99.90;;;;;;5012909;28;20030;-69
2021/03/10 01:47:47;;;;;;;37.58;23.50;;;4.10;99.90;;;;;;5011831;28;20032;-70
2021/03/10 01:50:17;;;;;;;35.03;23.33;;;4.10;99.90;;;;;;5033208;28;20049;-70
2021/03/10 01:52:43;;;;;;;37.10;23.23;;;4.00;99.90;;;;;;5036973;28;20017;-69
2021/03/10 01:55:09;;;;;;;40.83;24.17;;;4.00;99.90;;;;;;5022648;28;20088;-69
2021/03/10 01:57:35;;;;;;;40.53;24.45;;;3.90;99.90;;;;;;5018296;28;20090;-70
2021/03/10 02:00:04;;;;;;;40.40;25.35;;;3.80;99.90;;;;;;5011758;28;20026;-70
2021/03/10 02:02:30;;;;;;;37.28;24.23;;;3.80;99.90;;;;;;4997095;28;20026;-69
2021/03/10 02:04:56;;;;;;;41.58;25.05;;;3.70;99.90;;;;;;4991371;28;20113;-69
2021/03/10 02:07:49;;;;;;;40.33;24.90;;;3.70;99.90;;;;;;4993974;28;20034;-69
2021/03/10 02:10:23;;;;;;;45.30;25.63;;;3.60;99.90;;;;;;4993790;28;20097;-69
2021/03/10 02:13:11;;;;;;;41.65;25.13;;;3.50;99.90;;;;;;4992003;28;20033;-69
2021/03/10 02:15:43;;;;;;;48.20;26.10;;;3.40;99.90;;;;;;4992384;28;20485;-69
2021/03/10 02:18:11;;;;;;;;;;;3.40;99.90;;;;;;4993016;28;20026;-68
2021/03/10 02:20:38;;;;;;;44.65;24.52;;;3.40;99.90;;;;;;4993146;28;19945;-70
2021/03/10 02:23:39;;;;;;;45.30;26.20;;;3.30;99.90;;;;;;4997981;28;20101;-68
2021/03/10 02:26:08;;;;;;;43.65;26.27;;;3.20;99.90;;;;;;4989154;28;20048;-70
2021/03/10 02:28:34;;;;;;;49.13;27.02;;;3.10;99.90;;;;;;5011759;28;20044;-70
2021/03/10 02:31:01;;;;;;;47.63;27.73;;;3.00;99.90;;;;;;5010734;28;20489;-68
2021/03/10 02:33:29;;;;;;;43.92;26.00;;;3.00;99.90;;;;;;5011197;28;20057;-70
2021/03/10 02:36:01;;;;;;;46.10;27.33;;;3.00;99.90;;;;;;5011769;28;20445;-69
2021/03/10 02:38:27;;;;;;;46.00;26.75;;;3.10;99.90;;;;;;5011696;28;20050;-70
2021/03/10 02:40:55;;;;;;;48.28;27.15;;;3.10;99.90;;;;;;5011645;28;20064;-68
2021/03/10 02:43:22;;;;;;;46.83;26.73;;;3.20;99.90;;;;;;5011071;28;20116;-68
2021/03/10 02:45:50;;;;;;;45.17;27.02;;;3.30;99.90;;;;;;5011641;28;20053;-68
2021/03/10 02:48:16;;;;;;;43.58;25.42;;;3.40;99.90;;;;;;5011647;28;20030;-68
2021/03/10 02:50:42;;;;;;;48.15;25.77;;;3.50;99.90;;;;;;5011890;28;20511;-68
2021/03/10 02:53:08;;;;;;;45.10;26.45;;;3.60;99.90;;;;;;5010847;28;20022;-68
2021/03/10 02:55:35;;;;;;;46.75;25.90;;;3.70;99.90;;;;;;5010655;28;20018;-68
2021/03/10 02:58:01;;;;;;;43.67;25.63;;;3.80;99.90;;;;;;5011486;28;20083;-68
2021/03/10 03:00:29;;;;;;;43.20;24.77;;;3.70;99.90;;;;;;5011961;28;20057;-69
2021/03/10 03:02:55;;;;;;;42.88;24.67;;;3.80;99.90;;;;;;5009959;28;20058;-69
2021/03/10 03:05:20;;;;;;;44.25;25.50;;;3.80;99.90;;;;;;5010438;28;20508;-68
2021/03/10 03:07:47;;;;;;;40.72;25.60;;;3.80;99.90;;;;;;5011577;28;20049;-68
2021/03/10 03:10:24;;;;;;;43.22;25.23;;;3.90;99.90;;;;;;5011593;28;20146;-68
2021/03/10 03:12:50;;;;;;;41.30;24.55;;;4.00;99.90;;;;;;5011203;28;20022;-69
2021/03/10 03:15:18;;;;;;;44.22;25.15;;;3.90;99.90;;;;;;5011528;28;20472;-69
2021/03/10 03:17:46;;;;;;;42.50;24.42;;;4.00;99.90;;;;;;5011525;28;20034;-68
2021/03/10 03:20:13;;;;;;;42.72;24.88;;;4.00;99.90;;;;;;5010171;28;20022;-69
2021/03/10 03:22:44;;;;;;;46.80;25.63;;;4.10;99.90;;;;;;5011215;28;20030;-69
2021/03/10 03:25:13;;;;;;;45.17;25.98;;;4.10;99.90;;;;;;5012463;28;20080;-69
2021/03/10 03:27:40;;;;;;;44.22;25.60;;;4.20;99.90;;;;;;5012355;28;20062;-68
2021/03/10 03:30:08;;;;;;;46.03;26.27;;;4.20;99.90;;;;;;5004964;28;20029;-69
2021/03/10 03:32:36;;;;;;;44.15;25.50;;;4.20;99.90;;;;;;5016676;28;20022;-69
2021/03/10 03:35:02;;;;;;;45.75;26.08;;;4.30;99.90;;;;;;5023908;28;20043;-68
2021/03/10 03:37:28;;;;;;;42.25;24.95;;;4.30;99.90;;;;;;4999175;28;20022;-69
2021/03/10 03:39:53;;;;;;;45.70;25.67;;;4.30;99.90;;;;;;4998871;28;20472;-69
2021/03/10 03:42:20;;;;;;;42.03;23.85;;;4.40;99.90;;;;;;4996634;28;20031;-69
2021/03/10 03:44:46;;;;;;;42.75;25.63;;;4.40;99.90;;;;;;5011232;28;20026;-70
2021/03/10 03:47:13;;;;;;;40.67;25.05;;;4.30;99.90;;;;;;5013015;28;20026;-70
2021/03/10 03:49:46;;;;;;;42.42;24.42;;;4.20;99.90;;;;;;5014539;28;20038;-70
2021/03/10 03:52:16;;;;;;;42.70;25.08;;;4.30;99.90;;;;;;5011136;28;20027;-69
2021/03/10 03:54:42;;;;;;;43.38;25.33;;;4.20;99.90;;;;;;5009663;28;20018;-69
2021/03/10 03:57:08;;;;;;;46.50;26.48;;;4.10;99.90;;;;;;4996601;28;20026;-69
2021/03/10 03:59:37;;;;;;;42.95;25.83;;;4.20;99.90;;;;;;5004799;28;20018;-69
2021/03/10 04:02:03;;;;;;;43.70;25.42;;;4.20;99.90;;;;;;5022137;28;20113;-70
2021/03/10 04:04:29;;;;;;;39.63;24.55;;;4.10;99.90;;;;;;5013013;28;20081;-71
2021/03/10 04:06:55;;;;;;;47.25;26.35;;;4.10;99.90;;;;;;4996159;28;20026;-69
2021/03/10 04:09:21;;;;;;;40.65;24.88;;;4.00;99.90;;;;;;4995619;28;20485;-70
2021/03/10 04:11:48;;;;;;;41.47;25.52;;;3.90;99.90;;;;;;4995406;28;20026;-69
2021/03/10 04:14:15;;;;;;;41.72;25.10;;;3.90;99.90;;;;;;4994632;28;20034;-70
2021/03/10 04:16:40;;;;;;;45.22;25.58;;;3.80;99.90;;;;;;4994670;28;20030;-69
2021/03/10 04:19:06;;;;;;;44.15;26.52;;;3.80;99.90;;;;;;4994991;28;20030;-69
2021/03/10 04:21:32;;;;;;;43.78;25.13;;;3.80;99.90;;;;;;4994417;28;20242;-70
2021/03/10 04:23:57;;;;;;;43.97;24.92;;;3.70;99.90;;;;;;4992736;28;20033;-69
2021/03/10 04:26:24;;;;;;;45.35;26.88;;;3.70;99.90;;;;;;4994610;28;20023;-69
2021/03/10 04:28:50;;;;;;;45.40;26.50;;;3.60;99.90;;;;;;4994511;28;20062;-70
2021/03/10 04:31:16;;;;;;;49.72;26.88;;;3.50;99.90;;;;;;4994186;28;20061;-70
2021/03/10 04:33:42;;;;;;;45.00;26.80;;;3.40;99.90;;;;;;4993656;28;20065;-69
2021/03/10 04:36:08;;;;;;;45.97;27.23;;;3.30;99.90;;;;;;5010402;28;20105;-70
2021/03/10 04:38:34;;;;;;;49.88;27.17;;;3.10;99.90;;;;;;5013754;28;20488;-70
2021/03/10 04:41:00;;;;;;;51.05;28.40;;;3.00;99.90;;;;;;5014014;28;20058;-69
2021/03/10 04:43:25;;;;;;;48.38;27.67;;;2.90;99.90;;;;;;5013101;28;20030;-71
2021/03/10 04:45:51;;;;;;;54.17;28.02;;;2.70;99.90;;;;;;5013483;28;20025;-68
2021/03/10 04:48:18;;;;;;;48.30;27.85;;;2.60;99.90;;;;;;5012779;28;20021;-69
2021/03/10 04:50:43;;;;;;;49.53;27.05;;;2.50;99.90;;;;;;5013531;28;20030;-70
2021/03/10 04:53:09;;;;;;;49.47;27.52;;;2.40;99.90;;;;;;5012806;28;20106;-70
2021/03/10 04:55:35;;;;;;;55.47;29.70;;;2.40;99.90;;;;;;5014201;28;20018;-69
2021/03/10 04:58:00;;;;;;;53.10;28.55;;;2.30;99.90;;;;;;5014460;28;20029;-69
2021/03/10 05:00:26;;;;;;;55.40;28.33;;;2.30;99.90;;;;;;5015048;28;20030;-70
2021/03/10 05:02:52;;;;;;;57.15;28.67;;;2.20;99.90;;;;;;5002781;28;20033;-72
2021/03/10 05:05:17;;;;;;;59.50;31.05;;;2.20;99.90;;;;;;4996750;28;20042;-71
2021/03/10 05:07:44;;;;;;;66.03;30.48;;;2.20;99.90;;;;;;4997345;28;20033;-69
2021/03/10 05:10:10;;;;;;;60.38;30.70;;;2.20;99.90;;;;;;4999917;28;20057;-70
2021/03/10 05:12:36;;;;;;;57.72;30.33;;;2.00;99.90;;;;;;4994300;28;20053;-70
2021/03/10 05:15:06;;;;;;;57.88;29.95;;;2.30;99.90;;;;;;4998246;28;20193;-71
2021/03/10 05:17:31;;;;;;;55.50;29.23;;;2.40;99.90;;;;;;4993814;28;20077;-69
2021/03/10 05:19:58;;;;;;;56.60;29.90;;;2.30;99.90;;;;;;4994831;28;20023;-69
2021/03/10 05:22:24;;;;;;;57.38;28.85;;;2.30;99.90;;;;;;5007323;28;20025;-70
2021/03/10 05:24:50;;;;;;;58.28;28.70;;;2.20;99.90;;;;;;5017690;28;20015;-69
2021/03/10 05:27:16;;;;;;;57.58;29.50;;;2.20;99.90;;;;;;5016459;28;20057;-68
2021/03/10 05:29:42;;;;;;;57.20;28.02;;;2.00;99.90;;;;;;4994723;28;20046;-69
2021/03/10 05:32:08;;;;;;;57.50;28.70;;;2.00;99.90;;;;;;5012543;28;20022;-69
2021/03/10 05:34:34;;;;;;;63.65;30.52;;;2.00;99.90;;;;;;5007478;28;20032;-68
2021/03/10 05:37:00;;;;;;;70.47;33.05;;;2.00;99.90;;;;;;5012281;28;20548;-68
2021/03/10 05:39:26;;;;;;;61.88;30.95;;;2.00;99.90;;;;;;5013883;28;20022;-68
2021/03/10 05:41:51;;;;;;;72.75;33.60;;;2.00;99.90;;;;;;5013898;28;20577;-70
2021/03/10 05:44:17;;;;;;;67.93;31.60;;;2.00;99.90;;;;;;5010527;28;20038;-70
2021/03/10 05:46:43;;;;;;;70.25;34.45;;;2.10;99.90;;;;;;5010084;28;20033;-69
2021/03/10 05:49:09;;;;;;;70.60;33.60;;;2.00;99.90;;;;;;5013059;28;20045;-69
2021/03/10 05:51:35;;;;;;;65.28;32.25;;;2.00;99.90;;;;;;5018913;28;20066;-71
2021/03/10 05:54:02;;;;;;;64.75;32.47;;;2.00;99.90;;;;;;5019144;28;20431;-70
2021/03/10 05:56:28;;;;;;;65.00;32.75;;;2.10;99.90;;;;;;5019512;28;20109;-71
2021/03/10 05:58:58;;;;;;;71.13;33.92;;;2.20;99.90;;;;;;5005655;28;20434;-71
2021/03/10 06:01:24;;;;;;;67.57;32.35;;;2.30;99.90;;;;;;4994208;28;20117;-70
2021/03/10 06:03:59;;;;;;;62.25;31.27;;;2.40;99.90;;;;;;4991856;28;20093;-70
2021/03/10 06:06:32;;;;;;;58.50;31.10;;;2.50;99.90;;;;;;5010935;28;20050;-71
2021/03/10 06:09:18;;;;;;;54.75;29.55;;;2.60;99.90;;;;;;5012662;28;20026;-70
2021/03/10 06:12:02;;;;;;;54.65;29.48;;;2.70;99.90;;;;;;5012909;28;20076;-72
2021/03/10 06:14:29;;;;;;;57.55;29.48;;;2.80;99.90;;;;;;5011624;28;20026;-70
2021/03/10 06:17:11;;;;;;;53.28;29.30;;;2.90;99.90;;;;;;5012682;28;20476;-71
2021/03/10 06:19:44;;;;;;;56.83;29.17;;;2.90;99.90;;;;;;5009350;28;20037;-73
2021/03/10 06:22:11;;;;;;;55.45;29.33;;;3.00;99.90;;;;;;5011723;28;20271;-72
2021/03/10 06:24:39;;;;;;;62.88;30.25;;;3.30;99.90;;;;;;4994880;28;20034;-71
2021/03/10 06:27:06;;;;;;;57.45;29.75;;;3.40;99.90;;;;;;4996075;28;20396;-72
2021/03/10 06:29:32;;;;;;;49.90;27.77;;;3.90;99.90;;;;;;4993536;28;20041;-68
2021/03/10 06:32:02;;;;;;;45.28;24.80;;;4.30;99.90;;;;;;4992323;28;20031;-68
2021/03/10 06:34:28;;;;;;;47.83;25.80;;;4.30;99.90;;;;;;4992190;28;20109;-65
2021/03/10 06:36:54;;;;;;;48.13;25.73;;;4.10;99.90;;;;;;4992059;28;20094;-67
2021/03/10 06:39:30;;;;;;;47.40;27.80;;;4.00;99.90;;;;;;4992837;28;20065;-69
2021/03/10 06:41:57;;;;;;;46.22;26.30;;;3.90;99.90;;;;;;4992857;28;20038;-68
2021/03/10 06:44:27;;;;;;;48.13;26.65;;;4.00;99.90;;;;;;4991895;28;20089;-70
2021/03/10 06:47:04;;;;;;;48.75;26.98;;;4.00;99.90;;;;;;4992736;28;20117;-71
2021/03/10 06:49:31;;;;;;;48.53;27.65;;;4.00;99.90;;;;;;5013408;23;20050;-67
2021/03/10 06:52:08;;;;;;;45.15;26.83;;;4.60;99.90;;;;;;5039860;28;20601;-67
2021/03/10 06:54:34;;;;;;;47.00;26.73;;;4.10;99.90;;;;;;5030542;28;20117;-67
2021/03/10 06:57:07;;;;;;;43.00;25.85;;;4.10;99.90;;;;;;5029477;28;20018;-66
2021/03/10 06:59:39;;;;;;;46.60;25.73;;;4.10;99.90;;;;;;5011053;28;20022;-67
2021/03/10 07:02:16;;;;;;;46.20;25.30;;;4.20;99.90;;;;;;5023213;28;20036;-66
2021/03/10 07:04:44;;;;;;;48.95;28.20;;;4.20;99.90;;;;;;5037371;28;20025;-67
2021/03/10 07:07:10;;;;;;;53.63;26.88;;;4.20;99.90;;;;;;5047208;28;20108;-66
2021/03/10 07:09:37;;;;;;;49.25;26.77;;;4.30;99.90;;;;;;5050676;28;20028;-66
2021/03/10 07:12:03;;;;;;;46.75;25.70;;;4.30;99.90;;;;;;5052299;28;20043;-67
2021/03/10 07:14:29;;;;;;;47.42;27.33;;;4.40;99.90;;;;;;5054260;28;20017;-66
2021/03/10 07:16:56;;;;;;;45.78;26.70;;;4.50;99.90;;;;;;5054582;28;20506;-67
2021/03/10 07:19:22;;;;;;;50.40;27.50;;;4.60;99.90;;;;;;5054155;28;20029;-68
2021/03/10 07:22:04;;;;;;;50.33;26.70;;;4.80;99.90;;;;;;5054520;28;20100;-66
2021/03/10 07:24:48;;;;;;;43.78;25.27;;;4.80;99.90;;;;;;5053377;28;20438;-67
2021/03/10 07:27:16;;;;;;;52.92;27.05;;;4.80;99.90;;;;;;5034387;28;20021;-67
2021/03/10 07:29:42;;;;;;;49.97;27.95;;;4.80;99.90;;;;;;5034413;28;20533;-71
2021/03/10 07:32:09;;;;;;;49.28;26.42;;;4.80;99.90;;;;;;5034687;28;20113;-68
2021/03/10 07:34:36;;;;;;;47.67;27.25;;;4.80;99.90;;;;;;5044317;28;20507;-68
2021/03/10 07:37:15;;;;;;;46.88;26.83;;;4.90;99.90;;;;;;5054098;28;20483;-68
2021/03/10 07:39:42;;;;;;;46.17;26.27;;;5.00;99.90;;;;;;5054157;28;20025;-68
2021/03/10 07:42:15;;;;;;;47.22;26.05;;;5.20;99.90;;;;;;5052816;28;20033;-68
2021/03/10 07:44:41;;;;;;;46.25;26.45;;;5.30;99.90;;;;;;5054018;28;20040;-68
2021/03/10 07:47:09;;;;;;;43.38;25.55;;;5.30;99.90;;;;;;5054105;28;20025;-68
2021/03/10 07:49:35;;;;;;;43.95;26.67;;;5.50;99.90;;;;;;5052826;28;20415;-68
2021/03/10 07:52:12;;;;;;;44.63;25.60;;;5.50;99.90;;;;;;5054366;28;20033;-67
2021/03/10 07:54:40;;;;;;;44.45;26.20;;;5.40;99.90;;;;;;5053395;28;20111;-67
2021/03/10 07:57:16;;;;;;;42.42;26.42;;;5.20;99.90;;;;;;5054472;28;20028;-67
2021/03/10 07:59:57;;;;;;;47.90;27.17;;;5.40;99.90;;;;;;5053257;28;20494;-67
2021/03/10 08:02:24;;;;;;;45.28;25.92;;;5.40;99.90;;;;;;5054016;28;20150;-67
2021/03/10 08:05:01;;;;;;;42.72;25.60;;;5.50;99.90;;;;;;5051915;28;20082;-67
2021/03/10 08:07:33;;;;;;;46.13;27.13;;;5.50;99.90;;;;;;5053906;28;20491;-67
2021/03/10 08:09:59;;;;;;;48.27;25.90;;;5.60;99.90;;;;;;5053387;28;20029;-66
2021/03/10 08:12:36;;;;;;;44.58;26.45;;;5.60;99.90;;;;;;5053714;28;20231;-67
2021/03/10 08:15:06;;;;;;;50.33;27.73;;;5.60;99.90;;;;;;5053373;28;20029;-68
2021/03/10 08:17:32;;;;;;;46.22;26.02;;;5.60;99.90;;;;;;5054093;28;20052;-71
2021/03/10 08:20:04;;;;;;;46.22;28.20;;;5.60;99.90;;;;;;5052651;28;20581;-68
2021/03/10 08:22:31;;;;;;;50.13;26.55;;;5.50;99.90;;;;;;5050880;28;20545;-68
2021/03/10 08:24:59;;;;;;;48.85;26.75;;;5.60;99.90;;;;;;5054696;28;20041;-68
2021/03/10 08:27:31;;;;;;;43.47;26.85;;;5.70;99.90;;;;;;5059281;28;20536;-68
2021/03/10 08:29:58;;;;;;;45.88;27.08;;;5.70;99.90;;;;;;5054770;28;20044;-69
2021/03/10 08:32:30;;;;;;;45.25;27.33;;;5.70;99.90;;;;;;5053625;28;20127;-67
2021/03/10 08:35:16;;;;;;;;;;;5.70;99.90;;;;;;5051089;28;20029;-67
2021/03/10 08:37:42;;;;;;;40.38;23.33;;;5.70;99.90;;;;;;5051866;28;19905;-68
2021/03/10 08:40:11;;;;;;;46.08;26.30;;;5.70;99.90;;;;;;5051937;28;20144;-67
2021/03/10 08:42:43;;;;;;;45.30;26.15;;;5.70;99.90;;;;;;5052862;28;20108;-67
2021/03/10 08:45:18;;;;;;;44.50;26.63;;;5.80;99.90;;;;;;5052740;28;20029;-67
2021/03/10 08:47:54;;;;;;;45.35;26.73;;;5.80;99.90;;;;;;5053114;28;20017;-68
2021/03/10 08:50:19;;;;;;;48.67;26.70;;;6.00;99.90;;;;;;5052473;28;20041;-68
2021/03/10 08:52:46;;;;;;;50.45;28.55;;;6.20;99.90;;;;;;5051985;28;20025;-68
2021/03/10 08:55:12;;;;;;;42.20;25.73;;;6.20;99.90;;;;;;5057815;28;20028;-68
2021/03/10 08:57:37;;;;;;;40.47;25.42;;;6.50;99.90;;;;;;5056303;28;20450;-67
2021/03/10 09:00:14;;;;;;;39.83;25.40;;;6.80;99.90;;;;;;5053753;28;20024;-67
2021/03/10 09:02:40;;;;;;;45.03;26.83;;;6.70;99.90;;;;;;5052020;28;20422;-69
2021/03/10 09:05:08;;;;;;;40.03;25.13;;;6.70;99.90;;;;;;5052492;28;20086;-68
2021/03/10 09:07:34;;;;;;;45.28;25.58;;;6.80;99.90;;;;;;5051500;28;20098;-69
2021/03/10 09:10:07;;;;;;;43.58;26.30;;;7.00;99.90;;;;;;5052972;28;20021;-67
2021/03/10 09:12:33;;;;;;;43.10;25.48;;;7.40;99.90;;;;;;5052417;28;20549;-67
2021/03/10 09:14:59;;;;;;;45.90;26.08;;;7.80;99.90;;;;;;5051688;28;20032;-67
2021/03/10 09:17:37;;;;;;;40.08;24.45;;;7.80;99.90;;;;;;5051090;28;20029;-67
2021/03/10 09:20:05;;;;;;;39.88;25.30;;;7.90;99.90;;;;;;5052579;28;20116;-67
2021/03/10 09:22:32;;;;;;;36.92;23.48;;;7.90;99.90;;;;;;5052330;28;20029;-67
2021/03/10 09:25:06;;;;;;;40.88;25.17;;;8.20;99.90;;;;;;5051542;28;20041;-67
2021/03/10 09:27:32;;;;;;;40.58;24.95;;;9.50;99.90;;;;;;5052803;28;20028;-67
2021/03/10 09:30:23;;;;;;;36.60;23.17;;;10.40;99.90;;;;;;5053260;28;20032;-67
2021/03/10 09:32:49;;;;;;;38.42;25.40;;;10.40;99.90;;;;;;5048405;28;20045;-67
2021/03/10 09:35:18;;;;;;;39.13;23.85;;;10.80;99.90;;;;;;5051906;28;20025;-66
2021/03/10 09:37:50;;;;;;;37.92;25.05;;;10.50;99.90;;;;;;5052154;28;20451;-68
2021/03/10 09:40:18;;;;;;;34.42;23.73;;;9.70;99.90;;;;;;5052466;28;20021;-66
2021/03/10 09:43:08;;;;;;;39.40;24.85;;;9.10;99.90;;;;;;5051514;28;20028;-68
2021/03/10 09:45:36;;;;;;;37.13;23.08;;;8.80;99.90;;;;;;5049481;28;20641;-68
2021/03/10 09:48:07;;;;;;;42.72;24.80;;;9.10;99.90;;;;;;5052091;28;20025;-68
2021/03/10 09:50:40;;;;;;;38.95;24.33;;;9.30;99.90;;;;;;5052127;28;20032;-67
2021/03/10 09:53:13;;;;;;;39.58;24.25;;;9.60;99.90;;;;;;5051354;28;20029;-68
2021/03/10 09:55:40;;;;;;;43.10;24.55;;;9.60;99.90;;;;;;5051790;28;20021;-68
2021/03/10 09:58:08;;;;;;;36.22;23.42;;;9.70;99.90;;;;;;5055587;28;20028;-69
2021/03/10 10:00:33;;;;;;;36.70;23.98;;;10.20;99.90;;;;;;5055202;28;20021;-68
2021/03/10 10:02:59;;;;;;;36.63;23.00;;;10.30;99.90;;;;;;5051395;28;20155;-66
2021/03/10 10:05:34;;;;;;;36.20;23.35;;;9.90;99.90;;;;;;5052040;28;20025;-67
2021/03/10 10:08:02;;;;;;;38.83;23.50;;;10.50;99.90;;;;;;5050824;28;20032;-67
2021/03/10 10:10:29;;;;;;;35.78;22.55;;;11.20;99.90;;;;;;5051559;28;20032;-66
2021/03/10 10:12:55;;;;;;;33.60;21.42;;;11.20;99.90;;;;;;5051274;28;20025;-66
2021/03/10 10:15:26;;;;;;;41.28;23.65;;;10.80;99.90;;;;;;5051130;28;20363;-66
2021/03/10 10:17:55;;;;;;;29.80;22.15;;;10.90;99.90;;;;;;5051683;28;20446;-67
2021/03/10 10:20:23;;;;;;;32.28;22.30;;;10.60;99.90;;;;;;5052107;28;20027;-66
2021/03/10 10:22:50;;;;;;;46.38;24.63;;;10.60;99.90;;;;;;5049635;28;20028;-66
2021/03/10 10:25:18;;;;;;;31.60;21.25;;;10.70;99.90;;;;;;5050627;28;20032;-70
2021/03/10 10:27:45;;;;;;;34.63;19.83;;;11.20;99.90;;;;;;5051357;28;20063;-70
2021/03/10 10:30:17;;;;;;;30.52;21.77;;;11.30;99.90;;;;;;5051863;28;20049;-66
2021/03/10 10:32:44;;;;;;;31.58;21.38;;;12.00;99.90;;;;;;5051524;28;20107;-67
2021/03/10 10:35:11;;;;;;;35.28;20.27;;;11.60;99.90;;;;;;5050671;28;20029;-66
2021/03/10 10:37:37;;;;;;;41.60;22.48;;;12.50;99.60;;;;;;5051471;28;20104;-66
2021/03/10 10:40:08;;;;;;;29.88;21.25;;;13.10;97.80;;;;;;5049349;28;20108;-67
2021/03/10 10:42:34;;;;;;;28.10;19.92;;;14.60;93.80;;;;;;5050187;28;20033;-67
2021/03/10 10:45:00;;;;;;;32.50;19.42;;;13.20;93.40;;;;;;5050584;28;20029;-67
2021/03/10 10:47:26;;;;;;;28.90;19.45;;;13.40;93.50;;;;;;5054815;28;20540;-68
2021/03/10 10:49:52;;;;;;;27.58;20.00;;;13.90;93.20;;;;;;5055172;28;20186;-66
2021/03/10 10:52:19;;;;;;;28.70;19.60;;;14.70;91.70;;;;;;5055406;28;20097;-67
2021/03/10 10:54:44;;;;;;;25.65;19.80;;;13.80;90.80;;;;;;5053642;28;20021;-69
2021/03/10 10:57:10;;;;;;;25.70;18.95;;;12.90;92.20;;;;;;5055689;28;20063;-68
2021/03/10 10:59:39;;;;;;;27.80;19.00;;;12.00;93.60;;;;;;5055401;28;20126;-66
2021/03/10 11:02:05;;;;;;;24.15;16.75;;;11.80;93.40;;;;;;5055580;28;20158;-66
2021/03/10 11:04:31;;;;;;;25.27;17.55;;;11.60;93.90;;;;;;5054558;28;20031;-66
2021/03/10 11:06:57;;;;;;;25.98;16.40;;;10.30;95.40;;;;;;5055163;28;20104;-66
2021/03/10 11:09:22;;;;;;;25.60;17.60;;;10.30;94.70;;;;;;5055619;28;20033;-68
2021/03/10 11:11:48;;;;;;;24.77;16.42;;;10.70;95.60;;;;;;5065465;28;20482;-68
2021/03/10 11:14:14;;;;;;;19.70;15.23;;;12.00;93.90;;;;;;5076697;28;20035;-66
2021/03/10 11:16:40;;;;;;;20.25;15.80;;;12.20;91.60;;;;;;5057826;28;20017;-66
2021/03/10 11:19:05;;;;;;;23.30;15.80;;;13.20;90.30;;;;;;5056465;28;20440;-67
2021/03/10 11:21:31;;;;;;;19.75;15.55;;;13.90;87.80;;;;;;5055027;28;20095;-66
2021/03/10 11:23:57;;;;;;;21.85;16.80;;;14.20;84.60;;;;;;5054672;28;20684;-67
2021/03/10 11:26:22;;;;;;;18.60;14.48;;;15.20;82.20;;;;;;5054182;28;20025;-66
2021/03/10 11:28:48;;;;;;;19.13;14.57;;;13.60;80.90;;;;;;5055026;28;20032;-67
2021/03/10 11:31:14;;;;;;;16.63;12.85;;;15.20;78.90;;;;;;5054485;28;20021;-67
2021/03/10 11:33:39;;;;;;;13.82;11.77;;;15.80;75.30;;;;;;5053668;28;20111;-67
2021/03/10 11:36:07;;;;;;;17.77;15.15;;;17.70;66.70;;;;;;5054091;28;20025;-67
2021/03/10 11:38:33;;;;;;;20.02;14.48;;;17.20;65.30;;;;;;5054236;28;20140;-67
2021/03/10 11:41:00;;;;;;;22.45;14.65;;;16.30;68.60;;;;;;5053469;28;20040;-67
2021/03/10 11:43:26;;;;;;;20.05;15.43;;;15.60;70.90;;;;;;5054178;28;20033;-67
2021/03/10 11:45:52;;;;;;;16.88;14.40;;;14.10;73.90;;;;;;5051795;28;20047;-67
2021/03/10 11:48:17;;;;;;;19.40;13.48;;;13.80;74.30;;;;;;5053885;28;20044;-67
2021/03/10 11:50:43;;;;;;;19.00;14.43;;;13.50;75.90;;;;;;5053289;28;20518;-67
2021/03/10 11:53:09;;;;;;;18.33;13.00;;;14.60;72.30;;;;;;5053683;28;20032;-69
2021/03/10 11:55:36;;;;;;;18.95;13.75;;;13.80;73.60;;;;;;5053892;28;20017;-66
2021/03/10 11:58:02;;;;;;;16.30;13.48;;;13.70;75.10;;;;;;5053699;28;20021;-66
2021/03/10 12:00:28;;;;;;;17.83;13.38;;;13.60;72.90;;;;;;5053906;28;20087;-66
2021/03/10 12:02:54;;;;;;;18.77;13.75;;;12.50;75.30;;;;;;5053397;28;20027;-67
2021/03/10 12:05:20;;;;;;;18.95;14.20;;;12.30;77.40;;;;;;5051323;28;20086;-66
2021/03/10 12:07:47;;;;;;;19.52;13.82;;;12.30;78.50;;;;;;5052007;28;20025;-67
2021/03/10 12:10:13;;;;;;;17.33;12.40;;;12.70;77.90;;;;;;5053527;28;20032;-67
2021/03/10 12:12:40;;;;;;;15.32;10.88;;;12.20;75.60;;;;;;5052029;28;20483;-67
2021/03/10 12:15:07;;;;;;;15.43;11.00;;;11.70;75.00;;;;;;5053620;28;20107;-66
2021/03/10 12:17:33;;;;;;;16.50;12.30;;;11.40;77.60;;;;;;5053442;28;20021;-66
2021/03/10 12:19:59;;;;;;;14.32;10.70;;;11.40;76.80;;;;;;5053004;28;20094;-67
2021/03/10 12:22:24;;;;;;;19.52;13.57;;;11.40;75.60;;;;;;5053077;28;20108;-66
2021/03/10 12:24:50;;;;;;;14.50;10.55;;;11.40;76.70;;;;;;5052811;28;20105;-66
2021/03/10 12:27:25;;;;;;;19.90;11.00;;;11.10;75.30;;;;;;5053829;28;20501;-66
2021/03/10 12:29:55;;;;;;;15.55;11.50;;;10.70;78.60;;;;;;5051844;28;20025;-65
2021/03/10 12:32:27;;;;;;;15.75;10.60;;;10.60;78.90;;;;;;5053555;28;20100;-66
2021/03/10 12:34:56;;;;;;;14.90;10.85;;;10.60;79.70;;;;;;5051686;28;20490;-66
2021/03/10 12:37:23;;;;;;;14.40;10.82;;;10.80;78.10;;;;;;5052296;28;20061;-65
2021/03/10 12:39:49;;;;;;;18.38;11.48;;;10.70;79.40;;;;;;5051235;28;20154;-66